< Typhoon 195705 1957 Season Typhoon 195707 >
Typhoon 195706 (WENDY)
General InformationTrack Information on Google Maps || Disaster Info.ResourceGoogle EarthGE AnimationAtom FeedGeoJSON
Detalied Best Track (Time Zone = UTC)
Year Month Day Hour Lat. Long. Pressure (hPa) Wind (kt) Class Image Chart
1957 7 10 18 7.0 141.0 1006 0 2 -- Chart
1957 7 11 00 8.0 140.0 1004 0 2 -- Chart
1957 7 11 06 9.0 139.0 1004 0 2 -- Chart
1957 7 11 12 9.2 137.7 1004 0 2 -- Chart
1957 7 11 18 10.0 136.0 1002 0 2 -- Chart
1957 7 12 00 10.6 134.6 1002 0 2 -- Chart
1957 7 12 06 11.0 133.2 1002 0 2 -- Chart
1957 7 12 12 11.3 131.8 1002 0 2 -- Chart
1957 7 12 18 11.8 130.3 1000 0 9 -- Chart
1957 7 13 00 12.2 129.0 990 0 9 -- Chart
1957 7 13 06 12.8 128.2 990 0 9 -- Chart
1957 7 13 12 13.1 127.4 990 0 9 -- Chart
1957 7 13 18 14.1 126.2 990 0 9 -- Chart
1957 7 14 00 15.3 125.4 990 0 9 -- Chart
1957 7 14 06 16.2 123.7 985 0 9 -- Chart
1957 7 14 12 17.1 122.0 985 0 9 -- Chart
1957 7 14 18 17.6 121.0 985 0 9 -- Chart
1957 7 15 00 18.1 120.0 985 0 9 -- Chart
1957 7 15 06 18.4 119.2 985 0 9 -- Chart
1957 7 15 12 18.8 118.1 985 0 9 -- Chart
1957 7 15 18 19.3 117.2 988 0 9 -- Chart
1957 7 16 00 20.1 116.7 988 0 9 -- Chart
1957 7 16 06 21.5 115.8 990 0 9 -- Chart
1957 7 16 12 22.8 114.8 994 0 9 -- Chart
1957 7 16 18 23.2 113.5 994 0 9 -- Chart
1957 7 17 00 24.0 112.0 994 0 9 -- Chart
1957 7 17 06 25.2 110.0 994 0 2 -- Chart
1957 7 17 12 26.2 108.0 994 0 2 -- Chart
1957 7 17 18 28.0 105.2 996 0 2 -- Chart
1957 7 18 00 28.5 106.0 996 0 2 -- Chart
Japan Meteorological Agency Best Track Data | Correction Date : 1989-06-01
< Typhoon 195705 1957 Season Typhoon 195707 >

Help